Pagina principale
METAR-TAF:

METAR-TAF

Aeroporti :

Aeroporto Internazionale del Bahrein

Bahrain, Bahrain

latitudine: 26-16N, longitudine: 050-39E, altezza: 2 m

Osservazione

Il bollettino è stato emesso 23 minuti fa, alle 14:30 UTC
Vento 8 kt da nord-est
Temperature 31°C
Umidità 49%
Pressione 1008 hPa
Visibilità 10 km o più
nessuna nube inferiore a 1500 m e nessun cumulonembo

METAR: OBBI 211430Z 05008KT CAVOK 31/19 Q1008 NOSIG

Ora: 17:53 (14:53 UTC)

Previsione

Il bollettino è stato emesso 3 ore e 53 minuti fa, alle 11:00 UTC
Previsione valida dal 21 alle 12 UTC al 22 alle 18 UTC
Vento 10 kt da nord/nord-est
Visibilità 10 km o più
nessuna nube inferiore a 1500 m e nessun cumulonembo
Evoluzione graduale
dal 21 alle 16 UTC al 21 alle 18 UTC
Vento 5 kt da direzioni variabili
Evoluzione graduale
dal 22 alle 08 UTC al 22 alle 10 UTC
Vento 10 kt da nord/nord-est

TAF: OBBI 211100Z 2112/2218 02010KT CAVOK BECMG 2116/2118 VRB05KT BECMG 2208/2210 03010KT

Osservazioni e previsioni meteorologiche di più di 4000 aeroporti (messaggi METAR e TAF).

Le stazioni disponibili sono rappresentate dai dischi gialli e rossi sulla carta.

Puntare il mouse per vedere il nome della stazione.

Clicca sopra per visualizzare le osservazioni e previsioni meteorologiche.

Per cambiare la mappa : fare clic sui pulsanti verdi con una croce nera per ingrandire, il pulsante verde con un trattino per diminuire, o sulla freccia verde per le mappe adiacenti.


METAR-TAF: